createdAt,value
2017-07-25T00:00:24.421Z,97623.63
2017-07-25T00:02:51.861Z,97627.22
2017-07-25T00:05:19.342Z,97625.70
2017-07-25T00:07:46.786Z,97624.58
2017-07-25T00:10:14.225Z,97624.31
2017-07-25T00:12:41.692Z,97625.77
2017-07-25T00:15:09.156Z,97627.22
2017-07-25T00:17:36.684Z,97620.56
2017-07-25T00:20:04.145Z,97628.49
2017-07-25T00:22:31.616Z,97639.51
2017-07-25T00:24:59.211Z,97640.41
2017-07-25T00:27:27.224Z,97637.41
2017-07-25T00:29:54.710Z,97638.00
2017-07-25T00:32:22.162Z,97632.41
2017-07-25T00:34:49.633Z,97639.84
2017-07-25T00:37:17.081Z,97642.47
2017-07-25T00:39:44.549Z,97643.25
2017-07-25T00:42:11.997Z,97640.53
2017-07-25T00:44:39.486Z,97640.47
2017-07-25T00:47:06.933Z,97645.61
2017-07-25T00:49:34.388Z,97641.62
2017-07-25T00:54:38.536Z,97633.51
2017-07-25T00:57:05.974Z,97637.99
2017-07-25T00:59:33.417Z,97642.36
2017-07-25T01:02:00.897Z,97638.75
2017-07-25T01:04:28.352Z,97633.95
2017-07-25T01:06:55.804Z,97633.84
2017-07-25T01:09:23.269Z,97623.13
2017-07-25T01:11:50.746Z,97624.64
2017-07-25T01:14:18.185Z,97635.89
2017-07-25T01:16:45.631Z,97623.45
2017-07-25T01:19:13.117Z,97626.03
2017-07-25T01:21:40.567Z,97623.94
2017-07-25T01:24:08.014Z,97618.68
2017-07-25T01:26:35.486Z,97608.80
2017-07-25T01:29:02.935Z,97609.86
2017-07-25T01:31:30.405Z,97603.27
2017-07-25T01:33:57.866Z,97604.38
2017-07-25T01:36:30.246Z,97607.63
2017-07-25T01:38:57.725Z,97605.55
2017-07-25T01:41:25.190Z,97610.25
2017-07-25T01:43:52.633Z,97614.91
2017-07-25T01:46:20.104Z,97610.19
2017-07-25T01:48:47.594Z,97604.16
2017-07-25T01:51:15.036Z,97602.21
2017-07-25T01:53:42.522Z,97600.05
2017-07-25T01:56:09.978Z,97593.53
2017-07-25T01:58:37.428Z,97582.77
2017-07-25T02:01:04.909Z,97579.91
2017-07-25T02:03:32.355Z,97586.44
2017-07-25T02:05:59.808Z,97575.53
2017-07-25T02:08:27.273Z,97577.06
2017-07-25T02:10:54.720Z,97573.70
2017-07-25T02:13:22.193Z,97585.64
2017-07-25T02:15:49.628Z,97579.63
2017-07-25T02:18:17.112Z,97587.27
2017-07-25T02:20:44.556Z,97588.31
2017-07-25T02:23:12.006Z,97585.69
2017-07-25T02:25:39.492Z,97580.68
2017-07-25T02:28:06.939Z,97584.14
2017-07-25T02:30:34.397Z,97586.85
2017-07-25T02:33:01.878Z,97580.88
2017-07-25T02:35:29.328Z,97577.20
2017-07-25T02:37:56.793Z,97570.19
2017-07-25T02:40:24.253Z,97568.66
2017-07-25T02:42:51.717Z,97568.24
2017-07-25T02:45:19.191Z,97570.11
2017-07-25T02:47:46.645Z,97569.06
2017-07-25T02:50:14.096Z,97572.06
2017-07-25T02:52:41.560Z,97567.74
2017-07-25T02:55:09.014Z,97572.72
2017-07-25T02:57:36.506Z,97559.85
2017-07-25T03:00:03.970Z,97563.41
2017-07-25T03:02:31.420Z,97562.41
2017-07-25T03:04:58.893Z,97560.74
2017-07-25T03:07:26.357Z,97564.50
2017-07-25T03:09:53.805Z,97556.58
2017-07-25T03:12:21.258Z,97561.70
2017-07-25T03:14:48.713Z,97562.97
2017-07-25T03:17:16.180Z,97562.49
2017-07-25T03:19:43.654Z,97566.98
2017-07-25T03:22:11.100Z,97564.27
2017-07-25T03:24:38.542Z,97566.58
2017-07-25T03:27:06.017Z,97564.97
2017-07-25T03:29:33.488Z,97565.97
2017-07-25T03:32:00.936Z,97566.02
2017-07-25T03:34:28.539Z,97568.24
2017-07-25T03:36:55.993Z,97572.63
2017-07-25T03:39:23.438Z,97568.32
2017-07-25T03:41:51.323Z,97568.91
2017-07-25T03:44:18.773Z,97558.72
2017-07-25T03:46:46.225Z,97556.09
2017-07-25T03:49:13.696Z,97561.27
2017-07-25T03:51:41.168Z,97553.91
2017-07-25T03:54:08.610Z,97551.72
2017-07-25T03:56:36.086Z,97552.48
2017-07-25T03:59:03.556Z,97549.98
2017-07-25T04:01:31.867Z,97550.53
2017-07-25T04:03:59.344Z,97543.05
2017-07-25T04:06:26.789Z,97542.55
2017-07-25T04:08:54.252Z,97547.00
2017-07-25T04:11:21.718Z,97547.62
2017-07-25T04:13:49.178Z,97535.89
2017-07-25T04:16:16.653Z,97542.68
2017-07-25T04:18:44.101Z,97533.17
2017-07-25T04:21:11.693Z,97533.80
2017-07-25T04:23:39.140Z,97534.19
2017-07-25T04:26:06.584Z,97535.08
2017-07-25T04:28:34.053Z,97537.95
2017-07-25T04:31:01.497Z,97533.02
2017-07-25T04:33:29.217Z,97541.71
2017-07-25T04:35:56.925Z,97542.59
2017-07-25T04:38:24.810Z,97538.39
2017-07-25T04:40:52.269Z,97540.18
2017-07-25T04:43:19.921Z,97542.62
2017-07-25T04:45:47.376Z,97540.65
2017-07-25T04:48:14.830Z,97542.05
2017-07-25T04:50:42.296Z,97539.14
2017-07-25T04:53:09.758Z,97543.02
2017-07-25T04:55:37.221Z,97545.66
2017-07-25T04:58:04.667Z,97546.91
2017-07-25T05:00:32.138Z,97552.41
2017-07-25T05:02:59.623Z,97550.65
2017-07-25T05:05:27.068Z,97562.87
2017-07-25T05:07:54.705Z,97565.78
2017-07-25T05:10:22.152Z,97560.11
2017-07-25T05:12:49.602Z,97560.30
2017-07-25T05:15:17.246Z,97565.39
2017-07-25T05:17:44.690Z,97564.77
2017-07-25T05:20:12.129Z,97560.41
2017-07-25T05:22:39.624Z,97565.41
2017-07-25T05:25:07.106Z,97561.13
2017-07-25T05:27:34.533Z,97560.70
2017-07-25T05:30:01.997Z,97559.36
2017-07-25T05:32:29.467Z,97563.09
2017-07-25T05:34:56.936Z,97563.19
2017-07-25T05:37:24.369Z,97559.11
2017-07-25T05:39:51.840Z,97560.79
2017-07-25T05:42:19.297Z,97553.83
2017-07-25T05:44:46.766Z,97557.45
2017-07-25T05:47:14.210Z,97550.56
2017-07-25T05:49:41.685Z,97538.66
2017-07-25T05:52:09.165Z,97550.02
2017-07-25T05:54:36.616Z,97549.09
2017-07-25T05:57:04.069Z,97540.79
2017-07-25T05:59:31.542Z,97541.80
2017-07-25T06:01:58.989Z,97545.95
2017-07-25T06:04:26.453Z,97543.55
2017-07-25T06:06:53.893Z,97546.98
2017-07-25T06:09:21.368Z,97552.04
2017-07-25T06:11:48.840Z,97548.24
2017-07-25T06:14:16.543Z,97547.17
2017-07-25T06:16:43.997Z,97546.02
2017-07-25T06:19:11.453Z,97546.30
2017-07-25T06:21:39.291Z,97536.85
2017-07-25T06:24:06.741Z,97532.83
2017-07-25T06:26:34.185Z,97533.80
2017-07-25T06:29:01.670Z,97538.07
2017-07-25T06:31:29.430Z,97531.76
2017-07-25T06:33:56.873Z,97523.50
2017-07-25T06:36:24.321Z,97525.00
2017-07-25T06:38:51.802Z,97525.16
2017-07-25T06:41:19.243Z,97524.48
2017-07-25T06:43:46.708Z,97520.84
2017-07-25T06:46:14.148Z,97519.56
2017-07-25T06:48:41.632Z,97518.95
2017-07-25T06:51:09.073Z,97517.03
2017-07-25T06:53:36.522Z,97519.25
2017-07-25T06:56:03.990Z,97517.43
2017-07-25T06:58:31.457Z,97511.66
2017-07-25T07:00:58.912Z,97517.67
2017-07-25T07:03:26.380Z,97515.55
2017-07-25T07:05:53.829Z,97507.02
2017-07-25T07:08:21.633Z,97512.56
2017-07-25T07:10:49.081Z,97510.28
2017-07-25T07:13:16.532Z,97502.09
2017-07-25T07:15:44.016Z,97511.65
2017-07-25T07:18:11.468Z,97501.31
2017-07-25T07:20:38.948Z,97511.85
2017-07-25T07:23:06.400Z,97505.28
2017-07-25T07:25:33.845Z,97505.22
2017-07-25T07:28:01.317Z,97495.72
2017-07-25T07:30:28.760Z,97499.46
2017-07-25T07:32:56.228Z,97511.01
2017-07-25T07:35:23.677Z,97500.26
2017-07-25T07:37:51.154Z,97513.64
2017-07-25T07:40:18.628Z,97506.46
2017-07-25T07:42:46.098Z,97503.39
2017-07-25T07:45:13.542Z,97502.52
2017-07-25T07:47:41.021Z,97506.83
2017-07-25T07:50:08.469Z,97515.83
2017-07-25T07:52:35.917Z,97510.64
2017-07-25T07:55:03.384Z,97517.80
2017-07-25T07:57:30.860Z,97502.70
2017-07-25T07:59:58.311Z,97516.05
2017-07-25T08:02:25.788Z,97504.75
2017-07-25T08:04:53.237Z,97501.41
2017-07-25T08:07:20.725Z,97497.91
2017-07-25T08:09:48.168Z,97499.30
2017-07-25T08:12:15.613Z,97486.92
2017-07-25T08:14:43.091Z,97491.56
2017-07-25T08:17:10.534Z,97493.56
2017-07-25T08:19:37.980Z,97483.96
2017-07-25T08:22:05.556Z,97481.06
2017-07-25T08:24:33.000Z,97477.36
2017-07-25T08:27:00.689Z,97477.02
2017-07-25T08:29:28.153Z,97478.41
2017-07-25T08:31:55.593Z,97476.00
2017-07-25T08:34:23.053Z,97486.30
2017-07-25T08:36:50.493Z,97465.81
2017-07-25T08:39:17.966Z,97477.50
2017-07-25T08:41:45.443Z,97481.61
2017-07-25T08:44:12.886Z,97483.53
2017-07-25T08:46:40.357Z,97483.67
2017-07-25T08:49:07.805Z,97490.52
2017-07-25T08:51:35.283Z,97488.18
2017-07-25T08:54:02.756Z,97479.11
2017-07-25T08:56:30.204Z,97489.95
2017-07-25T08:58:57.686Z,97494.27
2017-07-25T09:01:25.156Z,97488.75
2017-07-25T09:03:52.609Z,97489.24
2017-07-25T09:06:20.072Z,97491.66
2017-07-25T09:08:47.530Z,97498.23
2017-07-25T09:11:15.012Z,97488.09
2017-07-25T09:13:42.460Z,97492.43
2017-07-25T09:16:09.909Z,97487.19
2017-07-25T09:18:37.384Z,97485.35
2017-07-25T09:21:04.858Z,97489.09
2017-07-25T09:23:32.822Z,97474.27
2017-07-25T09:26:00.309Z,97472.94
2017-07-25T09:28:27.758Z,97480.92
2017-07-25T09:30:55.211Z,97463.27
2017-07-25T09:33:22.686Z,97450.56
2017-07-25T09:35:50.136Z,97465.97
2017-07-25T09:38:17.584Z,97460.59
2017-07-25T09:40:45.052Z,97476.09
2017-07-25T09:43:12.496Z,97474.33
2017-07-25T09:45:39.976Z,97460.17
2017-07-25T09:48:07.426Z,97459.16
2017-07-25T09:50:34.863Z,97467.97
2017-07-25T09:53:02.349Z,97450.33
2017-07-25T09:55:29.804Z,97455.99
2017-07-25T09:57:57.252Z,97466.53
2017-07-25T10:00:24.718Z,97447.36
2017-07-25T10:02:52.160Z,97447.85
2017-07-25T10:05:19.650Z,97454.38
2017-07-25T10:07:47.109Z,97444.33
2017-07-25T10:10:14.552Z,97446.44
2017-07-25T10:12:42.033Z,97449.88
2017-07-25T10:15:09.484Z,97466.36
2017-07-25T10:17:36.952Z,97461.64
2017-07-25T10:20:04.406Z,97454.92
2017-07-25T10:22:32.201Z,97473.78
2017-07-25T10:24:59.643Z,97462.08
2017-07-25T10:27:27.088Z,97458.09
2017-07-25T10:29:54.561Z,97442.61
2017-07-25T10:32:22.021Z,97467.25
2017-07-25T10:34:49.462Z,97461.82
2017-07-25T10:37:16.961Z,97472.41
2017-07-25T10:39:44.401Z,97461.86
2017-07-25T10:42:11.849Z,97474.54
2017-07-25T10:44:39.322Z,97468.96
2017-07-25T10:47:06.770Z,97474.02
2017-07-25T10:49:34.208Z,97461.02
2017-07-25T10:52:01.686Z,97467.62
2017-07-25T10:54:29.256Z,97461.28
2017-07-25T10:56:56.693Z,97480.73
2017-07-25T10:59:24.151Z,97476.75
2017-07-25T11:01:51.620Z,97466.20
2017-07-25T11:04:19.061Z,97466.34
2017-07-25T11:06:46.532Z,97467.80
2017-07-25T11:09:13.978Z,97467.66
2017-07-25T11:11:41.450Z,97475.02
2017-07-25T11:14:08.900Z,97466.25
2017-07-25T11:16:36.396Z,97482.34
2017-07-25T11:19:03.853Z,97466.41
2017-07-25T11:21:31.302Z,97462.42
2017-07-25T11:23:58.769Z,97474.27
2017-07-25T11:26:26.213Z,97455.64
2017-07-25T11:28:53.677Z,97451.28
2017-07-25T11:31:21.121Z,97458.30
2017-07-25T11:33:48.594Z,97445.20
2017-07-25T11:36:16.169Z,97449.97
2017-07-25T11:38:43.611Z,97444.96
2017-07-25T11:41:11.063Z,97457.59
2017-07-25T11:43:38.980Z,97453.38
2017-07-25T11:46:06.423Z,97457.27
2017-07-25T11:48:33.869Z,97460.31
2017-07-25T11:51:01.342Z,97448.19
2017-07-25T11:53:28.781Z,97447.89
2017-07-25T11:55:56.237Z,97443.98
2017-07-25T11:58:23.701Z,97437.73
2017-07-25T12:00:51.157Z,97440.09
2017-07-25T12:03:18.623Z,97439.05
2017-07-25T12:05:46.105Z,97454.02
2017-07-25T12:08:13.558Z,97447.02
2017-07-25T12:10:41.005Z,97450.42
2017-07-25T12:13:08.482Z,97457.52
2017-07-25T12:15:35.924Z,97464.41
2017-07-25T12:18:03.369Z,97462.29
2017-07-25T12:20:30.860Z,97485.42
2017-07-25T12:22:58.318Z,97494.32
2017-07-25T12:25:25.762Z,97495.05
2017-07-25T12:27:53.229Z,97479.72
2017-07-25T12:30:20.679Z,97487.08
2017-07-25T12:32:48.164Z,97481.55
2017-07-25T12:35:15.602Z,97474.20
2017-07-25T12:37:43.048Z,97472.14
2017-07-25T12:40:10.806Z,97476.09
2017-07-25T12:42:38.245Z,97470.78
2017-07-25T12:45:05.694Z,97458.30
2017-07-25T12:47:33.191Z,97451.41
2017-07-25T12:50:00.632Z,97453.09
2017-07-25T12:52:28.073Z,97456.95
2017-07-25T12:54:55.571Z,97449.27
2017-07-25T12:57:23.021Z,97448.60
2017-07-25T12:59:50.493Z,97447.70
2017-07-25T13:02:29.665Z,97448.05
2017-07-25T13:04:57.142Z,97447.08
2017-07-25T13:07:24.627Z,97444.33
2017-07-25T13:09:52.071Z,97451.69
2017-07-25T13:12:19.525Z,97442.53
2017-07-25T13:14:46.986Z,97443.09
2017-07-25T13:17:14.473Z,97435.38
2017-07-25T13:19:41.918Z,97429.94
2017-07-25T13:22:09.363Z,97428.45
2017-07-25T13:24:36.827Z,97431.28
2017-07-25T13:27:04.305Z,97429.55
2017-07-25T13:29:31.749Z,97437.72
2017-07-25T13:31:59.194Z,97431.68
2017-07-25T13:34:26.707Z,97437.05
2017-07-25T13:36:54.177Z,97445.81
2017-07-25T13:39:21.661Z,97453.53
2017-07-25T13:41:49.101Z,97444.70
2017-07-25T13:44:16.580Z,97451.52
2017-07-25T13:46:44.017Z,97442.65
2017-07-25T13:49:11.491Z,97447.94
2017-07-25T13:51:38.944Z,97443.14
2017-07-25T13:54:06.413Z,97432.63
2017-07-25T13:56:33.857Z,97433.27
2017-07-25T13:59:01.345Z,97446.52
2017-07-25T14:01:28.798Z,97433.97
2017-07-25T14:03:56.278Z,97437.58
2017-07-25T14:06:23.940Z,97435.86
2017-07-25T14:08:51.377Z,97429.86
2017-07-25T14:11:18.819Z,97447.39
2017-07-25T14:13:46.288Z,97425.36
2017-07-25T14:16:13.753Z,97437.77
2017-07-25T14:18:41.201Z,97447.74
2017-07-25T14:21:08.673Z,97430.41
2017-07-25T14:23:36.119Z,97436.98
2017-07-25T14:26:03.603Z,97439.44
2017-07-25T14:28:31.079Z,97429.97
2017-07-25T14:30:58.545Z,97423.16
2017-07-25T14:33:25.992Z,97438.97
2017-07-25T14:35:53.456Z,97435.30
2017-07-25T14:38:20.904Z,97428.60
2017-07-25T14:40:48.370Z,97429.81
2017-07-25T14:43:15.837Z,97425.50
2017-07-25T14:45:43.301Z,97430.82
2017-07-25T14:48:10.745Z,97424.24
2017-07-25T14:50:38.212Z,97428.41
2017-07-25T14:53:05.659Z,97423.80
2017-07-25T14:55:33.154Z,97437.88
2017-07-25T15:00:37.390Z,97451.42
2017-07-25T15:03:06.601Z,97431.95
2017-07-25T15:05:34.091Z,97417.39
2017-07-25T15:08:01.655Z,97420.07
2017-07-25T15:10:29.323Z,97416.25
2017-07-25T15:12:57.069Z,97419.47
2017-07-25T15:15:25.297Z,97406.95
2017-07-25T15:17:52.913Z,97403.12
2017-07-25T15:20:21.569Z,97411.89
2017-07-25T15:22:49.068Z,97395.79
2017-07-25T15:25:16.543Z,97421.23
2017-07-25T15:27:44.021Z,97410.41
2017-07-25T15:30:11.463Z,97397.41
2017-07-25T15:32:38.944Z,97414.64
2017-07-25T15:35:06.392Z,97395.63
2017-07-25T15:37:33.858Z,97396.59
2017-07-25T15:40:01.305Z,97384.17
2017-07-25T15:42:28.783Z,97404.82
2017-07-25T15:44:56.229Z,97392.97
2017-07-25T15:47:23.679Z,97372.77
2017-07-25T15:49:51.390Z,97376.84
2017-07-25T15:52:18.828Z,97373.50
2017-07-25T15:54:46.272Z,97393.94
2017-07-25T15:57:13.745Z,97375.65
2017-07-25T15:59:41.199Z,97362.80
2017-07-25T16:02:08.674Z,97373.25
2017-07-25T16:04:36.117Z,97389.56
2017-07-25T16:07:03.741Z,97390.54
2017-07-25T16:09:31.193Z,97398.59
2017-07-25T16:11:58.643Z,97399.73
2017-07-25T16:14:26.112Z,97410.88
2017-07-25T16:16:53.581Z,97413.45
2017-07-25T16:19:21.029Z,97426.08
2017-07-25T16:21:48.525Z,97427.73
2017-07-25T16:24:15.991Z,97418.75
2017-07-25T16:26:43.433Z,97426.81
2017-07-25T16:29:10.909Z,97434.52
2017-07-25T16:31:38.390Z,97434.80
2017-07-25T16:34:05.865Z,97437.91
2017-07-25T16:36:33.333Z,97456.70
2017-07-25T16:39:00.786Z,97479.96
2017-07-25T16:41:28.252Z,97507.13
2017-07-25T16:43:55.745Z,97487.39
2017-07-25T16:46:23.185Z,97465.16
2017-07-25T16:48:50.630Z,97461.51
2017-07-25T16:51:18.091Z,97458.67
2017-07-25T16:53:45.530Z,97456.92
2017-07-25T16:56:14.891Z,97457.84
2017-07-25T16:58:44.651Z,97453.02
2017-07-25T17:01:14.005Z,97440.53
2017-07-25T17:03:43.508Z,97464.33
2017-07-25T17:06:11.045Z,97465.06
2017-07-25T17:08:38.486Z,97457.13
2017-07-25T17:11:05.957Z,97454.31
2017-07-25T17:13:33.409Z,97463.13
2017-07-25T17:16:00.904Z,97454.23
2017-07-25T17:18:28.355Z,97458.96
2017-07-25T17:20:55.806Z,97443.86
2017-07-25T17:23:23.474Z,97433.58
2017-07-25T17:25:50.948Z,97436.73
2017-07-25T17:28:18.397Z,97429.41
2017-07-25T17:30:45.856Z,97426.67
2017-07-25T17:33:13.290Z,97419.80
2017-07-25T17:35:40.866Z,97437.06
2017-07-25T17:38:08.316Z,97439.94
2017-07-25T17:40:36.449Z,97449.09
2017-07-25T17:43:04.564Z,97451.71
2017-07-25T17:45:32.093Z,97459.44
2017-07-25T17:47:59.541Z,97478.45
2017-07-25T17:50:26.988Z,97449.41
2017-07-25T17:52:54.465Z,97449.03
2017-07-25T17:55:21.934Z,97459.97
2017-07-25T17:57:50.209Z,97482.28
2017-07-25T18:00:18.430Z,97469.52
2017-07-25T18:02:46.358Z,97479.20
2017-07-25T18:05:13.822Z,97492.56
2017-07-25T18:07:41.502Z,97483.36
2017-07-25T18:10:08.984Z,97486.37
2017-07-25T18:12:36.666Z,97490.77
2017-07-25T18:15:04.126Z,97487.42
2017-07-25T18:17:31.594Z,97484.66
2017-07-25T18:19:59.045Z,97485.69
2017-07-25T18:22:26.838Z,97490.91
2017-07-25T18:24:54.887Z,97489.15
2017-07-25T18:27:22.342Z,97484.77
2017-07-25T18:29:49.828Z,97488.67
2017-07-25T18:32:17.288Z,97490.67
2017-07-25T18:34:45.546Z,97489.44
2017-07-25T18:37:14.554Z,97496.60
2017-07-25T18:39:42.501Z,97497.98
2017-07-25T18:42:10.174Z,97497.57
2017-07-25T18:44:37.621Z,97499.20
2017-07-25T18:47:06.153Z,97501.17
2017-07-25T18:49:34.921Z,97507.53
2017-07-25T18:52:02.454Z,97506.05
2017-07-25T18:54:29.893Z,97508.63
2017-07-25T18:56:57.354Z,97504.91
2017-07-25T18:59:26.009Z,97513.88
2017-07-25T19:01:53.852Z,97508.42
2017-07-25T19:04:21.564Z,97512.63
2017-07-25T19:06:49.018Z,97516.13
2017-07-25T19:09:16.460Z,97506.84
2017-07-25T19:11:44.012Z,97518.05
2017-07-25T19:14:11.467Z,97503.09
2017-07-25T19:16:38.935Z,97504.58
2017-07-25T19:19:07.164Z,97501.33
2017-07-25T19:21:35.553Z,97495.05
2017-07-25T19:24:04.310Z,97496.98
2017-07-25T19:26:31.752Z,97498.39
2017-07-25T19:28:59.227Z,97485.58
2017-07-25T19:31:27.586Z,97486.27
2017-07-25T19:33:55.029Z,97483.21
2017-07-25T19:36:22.497Z,97482.25
2017-07-25T19:38:49.985Z,97478.95
2017-07-25T19:41:17.690Z,97476.31
2017-07-25T19:43:46.148Z,97480.59
2017-07-25T19:46:13.631Z,97493.80
2017-07-25T19:48:41.077Z,97471.33
2017-07-25T19:51:08.537Z,97468.79
2017-07-25T19:53:36.018Z,97471.14
2017-07-25T19:56:03.459Z,97461.76
2017-07-25T19:58:30.905Z,97464.95
2017-07-25T20:00:58.378Z,97460.67
2017-07-25T20:03:26.145Z,97446.49
2017-07-25T20:05:53.665Z,97448.25
2017-07-25T20:08:21.121Z,97438.88
2017-07-25T20:10:48.826Z,97451.69
2017-07-25T20:13:16.905Z,97450.86
2017-07-25T20:15:44.374Z,97452.91
2017-07-25T20:18:12.229Z,97446.53
2017-07-25T20:20:39.707Z,97449.97
2017-07-25T20:23:07.152Z,97461.38
2017-07-25T20:25:34.817Z,97454.77
2017-07-25T20:28:02.322Z,97449.25
2017-07-25T20:30:29.773Z,97453.09
2017-07-25T20:32:57.251Z,97453.70
2017-07-25T20:35:26.093Z,97447.33
2017-07-25T20:37:53.535Z,97444.52
2017-07-25T20:40:20.984Z,97447.64
2017-07-25T20:42:48.932Z,97464.52
2017-07-25T20:45:16.380Z,97448.82
2017-07-25T20:47:43.826Z,97445.27
2017-07-25T20:50:11.293Z,97449.16
2017-07-25T20:52:38.765Z,97449.28
2017-07-25T20:55:06.226Z,97447.75
2017-07-25T20:57:33.672Z,97453.27
2017-07-25T21:00:01.148Z,97450.95
2017-07-25T21:02:28.615Z,97451.98
2017-07-25T21:04:56.065Z,97454.44
2017-07-25T21:07:23.557Z,97457.53
2017-07-25T21:09:51.280Z,97450.67
2017-07-25T21:12:18.729Z,97453.77
2017-07-25T21:14:46.207Z,97454.76
2017-07-25T21:17:13.650Z,97457.14
2017-07-25T21:19:41.095Z,97453.66
2017-07-25T21:22:08.578Z,97445.73
2017-07-25T21:24:36.065Z,97450.60
2017-07-25T21:27:03.507Z,97461.66
2017-07-25T21:29:30.961Z,97457.33
2017-07-25T21:31:58.426Z,97454.40
2017-07-25T21:34:25.902Z,97456.27
2017-07-25T21:36:53.377Z,97460.55
2017-07-25T21:39:20.848Z,97458.45
2017-07-25T21:41:48.281Z,97462.00
2017-07-25T21:44:15.727Z,97456.39
2017-07-25T21:46:43.200Z,97454.06
2017-07-25T21:49:10.646Z,97453.13
2017-07-25T21:51:38.089Z,97454.87
2017-07-25T21:54:05.574Z,97454.05
2017-07-25T21:56:33.026Z,97458.30
2017-07-25T21:59:00.474Z,97463.72
2017-07-25T22:01:48.594Z,97458.91
2017-07-25T22:04:27.733Z,97459.88
2017-07-25T22:06:55.228Z,97461.33
2017-07-25T22:09:22.674Z,97458.62
2017-07-25T22:11:50.122Z,97456.03
2017-07-25T22:14:17.761Z,97453.03
2017-07-25T22:16:45.201Z,97452.31
2017-07-25T22:19:12.645Z,97452.12
2017-07-25T22:21:40.139Z,97449.99
2017-07-25T22:24:07.577Z,97442.36
2017-07-25T22:26:35.046Z,97439.34
2017-07-25T22:29:02.498Z,97439.30
2017-07-25T22:31:29.961Z,97446.13
2017-07-25T22:33:57.417Z,97454.31
2017-07-25T22:36:24.877Z,97454.34
2017-07-25T22:38:52.325Z,97450.92
2017-07-25T22:41:19.797Z,97451.38
2017-07-25T22:43:47.273Z,97450.07
2017-07-25T22:46:14.724Z,97439.34
2017-07-25T22:48:42.193Z,97442.00
2017-07-25T22:51:09.638Z,97439.87
2017-07-25T22:53:37.080Z,97432.98
2017-07-25T22:56:04.538Z,97432.38
2017-07-25T22:58:31.989Z,97429.17
2017-07-25T23:00:59.485Z,97431.39
2017-07-25T23:03:26.936Z,97428.34
2017-07-25T23:05:54.387Z,97424.09
2017-07-25T23:08:21.876Z,97415.28
2017-07-25T23:10:49.322Z,97415.19
2017-07-25T23:13:16.761Z,97411.72
2017-07-25T23:15:44.225Z,97410.56
2017-07-25T23:18:11.697Z,97410.08
2017-07-25T23:20:39.177Z,97404.09
2017-07-25T23:23:06.629Z,97398.58
2017-07-25T23:25:34.089Z,97401.16
2017-07-25T23:28:01.559Z,97401.16
2017-07-25T23:30:29.030Z,97401.00
2017-07-25T23:32:56.485Z,97406.98
2017-07-25T23:35:23.948Z,97399.55
2017-07-25T23:37:51.400Z,97393.95
2017-07-25T23:40:18.872Z,97402.77
2017-07-25T23:42:46.344Z,97394.08
2017-07-25T23:45:13.788Z,97394.84
2017-07-25T23:47:41.233Z,97394.43
2017-07-25T23:50:08.706Z,97392.53
2017-07-25T23:52:36.153Z,97393.72
2017-07-25T23:55:03.623Z,97390.62
2017-07-25T23:57:31.093Z,97392.81
2017-07-25T23:59:58.541Z,97393.33
